createdAt,value
2017-09-04T00:00:06.357Z,16.10
2017-09-04T00:02:33.934Z,17.97
2017-09-04T00:05:01.489Z,17.30
2017-09-04T00:07:29.054Z,19.23
2017-09-04T00:09:56.615Z,17.93
2017-09-04T00:12:25.159Z,19.23
2017-09-04T00:14:52.712Z,20.37
2017-09-04T00:17:20.297Z,23.53
2017-09-04T00:19:47.854Z,28.23
2017-09-04T00:22:16.303Z,22.67
2017-09-04T00:24:43.872Z,24.90
2017-09-04T00:27:11.419Z,21.00
2017-09-04T00:29:38.957Z,16.57
2017-09-04T00:32:06.527Z,21.00
2017-09-04T00:34:34.078Z,19.40
2017-09-04T00:37:01.621Z,19.33
2017-09-04T00:39:29.208Z,20.83
2017-09-04T00:41:56.745Z,19.33
2017-09-04T00:44:24.298Z,20.47
2017-09-04T00:46:51.884Z,26.67
2017-09-04T00:49:19.434Z,20.03
2017-09-04T00:51:46.972Z,17.73
2017-09-04T00:54:14.552Z,19.20
2017-09-04T00:56:42.084Z,20.57
2017-09-04T00:59:09.632Z,20.70
2017-09-04T01:01:37.211Z,17.03
2017-09-04T01:04:04.755Z,16.30
2017-09-04T01:06:32.311Z,19.80
2017-09-04T01:08:59.869Z,20.10
2017-09-04T01:11:27.418Z,18.20
2017-09-04T01:13:54.960Z,19.80
2017-09-04T01:16:23.280Z,18.53
2017-09-04T01:18:50.809Z,19.13
2017-09-04T01:21:18.345Z,27.10
2017-09-04T01:23:45.922Z,19.80
2017-09-04T01:26:13.473Z,18.77
2017-09-04T01:28:41.023Z,23.53
2017-09-04T01:31:08.606Z,21.73
2017-09-04T01:33:36.149Z,22.90
2017-09-04T01:36:03.712Z,23.80
2017-09-04T01:38:31.301Z,24.23
2017-09-04T01:40:58.857Z,20.87
2017-09-04T01:43:26.398Z,16.50
2017-09-04T01:45:53.975Z,21.13
2017-09-04T01:48:21.525Z,19.57
2017-09-04T01:50:49.068Z,26.80
2017-09-04T01:53:16.650Z,22.50
2017-09-04T01:55:44.185Z,17.50
2017-09-04T01:58:11.726Z,20.47
2017-09-04T02:00:39.305Z,22.00
2017-09-04T02:03:06.868Z,17.20
2017-09-04T02:05:34.428Z,16.57
2017-09-04T02:08:02.013Z,16.47
2017-09-04T02:10:29.545Z,19.40
2017-09-04T02:12:57.094Z,15.63
2017-09-04T02:15:24.687Z,15.50
2017-09-04T02:17:52.225Z,18.10
2017-09-04T02:20:19.788Z,16.13
2017-09-04T02:22:47.360Z,15.20
2017-09-04T02:25:14.902Z,20.93
2017-09-04T02:27:42.454Z,14.97
2017-09-04T02:30:10.040Z,16.20
2017-09-04T02:32:37.603Z,14.30
2017-09-04T02:35:05.160Z,15.97
2017-09-04T02:37:32.742Z,14.03
2017-09-04T02:40:00.307Z,20.70
2017-09-04T02:42:27.855Z,15.10
2017-09-04T02:44:55.430Z,22.23
2017-09-04T02:47:22.988Z,19.97
2017-09-04T02:49:50.550Z,20.43
2017-09-04T02:52:18.116Z,27.55
2017-09-04T02:54:45.648Z,19.30
2017-09-04T02:57:13.176Z,18.90
2017-09-04T02:59:40.747Z,17.53
2017-09-04T03:02:08.289Z,15.70
2017-09-04T03:04:35.844Z,18.03
2017-09-04T03:07:04.176Z,15.30
2017-09-04T03:09:31.710Z,17.40
2017-09-04T03:11:59.255Z,17.87
2017-09-04T03:14:26.832Z,16.10
2017-09-04T03:16:54.391Z,17.83
2017-09-04T03:19:21.922Z,24.13
2017-09-04T03:21:49.507Z,16.13
2017-09-04T03:24:17.056Z,18.63
2017-09-04T03:26:44.596Z,18.80
2017-09-04T03:29:12.160Z,21.13
2017-09-04T03:31:39.717Z,25.63
2017-09-04T03:34:07.274Z,19.10
2017-09-04T03:36:34.858Z,16.80
2017-09-04T03:39:02.425Z,20.27
2017-09-04T03:41:30.007Z,16.40
2017-09-04T03:43:57.580Z,21.05
2017-09-04T03:46:25.132Z,15.90
2017-09-04T03:48:52.703Z,24.15
2017-09-04T03:51:20.273Z,21.17
2017-09-04T03:53:47.848Z,16.93
2017-09-04T03:56:15.386Z,24.63
2017-09-04T03:58:42.968Z,18.42
2017-09-04T04:01:10.521Z,19.73
2017-09-04T04:03:38.071Z,16.90
2017-09-04T04:06:05.641Z,15.83
2017-09-04T04:08:33.185Z,23.20
2017-09-04T04:11:00.725Z,17.40
2017-09-04T04:13:28.301Z,17.80
2017-09-04T04:15:55.848Z,19.73
2017-09-04T04:18:23.407Z,21.33
2017-09-04T04:20:50.990Z,22.70
2017-09-04T04:23:18.549Z,21.02
2017-09-04T04:25:46.100Z,21.33
2017-09-04T04:28:13.683Z,18.87
2017-09-04T04:30:41.243Z,17.50
2017-09-04T04:33:08.799Z,17.90
2017-09-04T04:35:36.383Z,15.13
2017-09-04T04:38:03.943Z,17.35
2017-09-04T04:40:31.481Z,20.00
2017-09-04T04:42:59.069Z,18.42
2017-09-04T04:45:26.630Z,17.67
2017-09-04T04:47:54.169Z,16.08
2017-09-04T04:50:21.737Z,18.58
2017-09-04T04:52:49.291Z,15.23
2017-09-04T04:55:16.824Z,17.45
2017-09-04T04:57:44.411Z,19.95
2017-09-04T05:00:11.970Z,16.42
2017-09-04T05:02:39.510Z,20.35
2017-09-04T05:05:07.092Z,20.12
2017-09-04T05:07:34.651Z,15.95
2017-09-04T05:10:02.219Z,16.92
2017-09-04T05:12:29.812Z,15.40
2017-09-04T05:14:57.355Z,15.95
2017-09-04T05:17:24.925Z,17.90
2017-09-04T05:19:52.510Z,16.92
2017-09-04T05:22:20.056Z,17.70
2017-09-04T05:24:47.619Z,17.65
2017-09-04T05:27:15.214Z,16.43
2017-09-04T05:29:42.758Z,14.98
2017-09-04T05:32:10.319Z,13.23
2017-09-04T05:34:37.885Z,17.73
2017-09-04T05:37:05.436Z,13.17
2017-09-04T05:39:32.994Z,18.93
2017-09-04T05:42:00.561Z,14.87
2017-09-04T05:44:28.116Z,20.52
2017-09-04T05:46:55.696Z,21.93
2017-09-04T05:49:23.283Z,15.30
2017-09-04T05:51:50.824Z,17.13
2017-09-04T05:54:18.374Z,17.97
2017-09-04T05:56:45.974Z,15.07
2017-09-04T05:59:13.523Z,16.30
2017-09-04T06:01:41.077Z,19.27
2017-09-04T06:04:08.754Z,19.83
2017-09-04T06:06:36.330Z,14.53
2017-09-04T06:09:03.888Z,13.83
2017-09-04T06:11:31.480Z,17.30
2017-09-04T06:13:59.024Z,15.23
2017-09-04T06:16:26.584Z,15.60
2017-09-04T06:18:54.149Z,17.53
2017-09-04T06:21:21.708Z,17.50
2017-09-04T06:23:49.245Z,16.90
2017-09-04T06:26:16.835Z,15.37
2017-09-04T06:28:44.373Z,14.60
2017-09-04T06:31:11.915Z,17.70
2017-09-04T06:33:39.484Z,13.67
2017-09-04T06:36:07.025Z,16.00
2017-09-04T06:38:34.585Z,13.90
2017-09-04T06:41:02.153Z,16.83
2017-09-04T06:43:29.689Z,15.50
2017-09-04T06:45:57.259Z,13.33
2017-09-04T06:48:24.827Z,14.10
2017-09-04T06:50:52.375Z,14.30
2017-09-04T06:53:19.936Z,14.43
2017-09-04T06:55:47.519Z,17.50
2017-09-04T06:58:15.061Z,19.77
2017-09-04T07:00:42.617Z,18.00
2017-09-04T07:03:10.194Z,17.20
2017-09-04T07:05:37.748Z,15.33
2017-09-04T07:08:05.308Z,14.20
2017-09-04T07:10:32.873Z,17.00
2017-09-04T07:13:00.450Z,16.17
2017-09-04T07:15:28.006Z,18.03
2017-09-04T07:17:55.590Z,20.23
2017-09-04T07:20:23.156Z,16.73
2017-09-04T07:22:50.795Z,26.00
2017-09-04T07:25:18.362Z,18.27
2017-09-04T07:27:45.909Z,16.37
2017-09-04T07:30:13.471Z,16.40
2017-09-04T07:32:41.061Z,18.00
2017-09-04T07:35:08.612Z,17.80
2017-09-04T07:37:36.153Z,22.87
2017-09-04T07:40:03.743Z,19.13
2017-09-04T07:42:31.284Z,20.47
2017-09-04T07:44:58.812Z,16.63
2017-09-04T07:47:26.380Z,17.23
2017-09-04T07:49:53.974Z,15.80
2017-09-04T07:52:21.523Z,20.33
2017-09-04T07:54:49.094Z,16.93
2017-09-04T07:57:16.634Z,17.40
2017-09-04T07:59:44.190Z,21.53
2017-09-04T08:02:11.777Z,15.97
2017-09-04T08:04:39.327Z,15.67
2017-09-04T08:07:06.892Z,20.73
2017-09-04T08:09:34.495Z,16.80
2017-09-04T08:12:02.049Z,23.13
2017-09-04T08:14:29.843Z,16.93
2017-09-04T08:16:57.424Z,14.80
2017-09-04T08:19:25.982Z,15.83
2017-09-04T08:21:53.546Z,24.30
2017-09-04T08:24:21.142Z,18.30
2017-09-04T08:26:48.682Z,13.80
2017-09-04T08:29:16.280Z,18.00
2017-09-04T08:31:43.878Z,15.30
2017-09-04T08:34:11.427Z,19.20
2017-09-04T08:36:38.986Z,16.27
2017-09-04T08:39:06.635Z,16.53
2017-09-04T08:41:34.226Z,18.77
2017-09-04T08:44:01.794Z,19.90
2017-09-04T08:46:29.368Z,21.77
2017-09-04T08:48:56.962Z,17.83
2017-09-04T08:51:24.493Z,22.50
2017-09-04T08:53:52.079Z,17.80
2017-09-04T08:56:19.621Z,36.73
2017-09-04T08:58:47.157Z,14.60
2017-09-04T09:01:14.766Z,14.20
2017-09-04T09:03:42.326Z,18.93
2017-09-04T09:06:09.890Z,15.63
2017-09-04T09:08:37.458Z,15.07
2017-09-04T09:11:04.997Z,15.93
2017-09-04T09:13:32.533Z,13.80
2017-09-04T09:16:00.101Z,20.97
2017-09-04T09:18:27.656Z,16.33
2017-09-04T09:20:55.192Z,19.40
2017-09-04T09:23:22.776Z,14.13
2017-09-04T09:25:50.341Z,16.50
2017-09-04T09:28:17.897Z,13.07
2017-09-04T09:30:45.462Z,15.90
2017-09-04T09:33:12.994Z,13.27
2017-09-04T09:35:40.522Z,14.77
2017-09-04T09:38:08.085Z,11.87
2017-09-04T09:40:35.632Z,11.80
2017-09-04T09:43:03.158Z,15.23
2017-09-04T09:45:30.746Z,15.83
2017-09-04T09:47:58.298Z,15.33
2017-09-04T09:50:25.842Z,12.57
2017-09-04T09:52:53.403Z,11.43
2017-09-04T09:55:20.920Z,13.77
2017-09-04T09:57:48.467Z,9.50
2017-09-04T10:00:16.035Z,15.73
2017-09-04T10:02:44.494Z,20.43
2017-09-04T10:05:12.152Z,16.73
2017-09-04T10:07:39.917Z,24.63
2017-09-04T10:10:07.674Z,18.87
2017-09-04T10:12:35.243Z,12.33
2017-09-04T10:15:03.043Z,10.50
2017-09-04T10:17:30.754Z,10.90
2017-09-04T10:19:58.463Z,6.20
2017-09-04T10:22:26.196Z,8.03
2017-09-04T10:24:53.968Z,10.93
2017-09-04T10:27:21.669Z,7.93
2017-09-04T10:29:49.345Z,6.40
2017-09-04T10:32:17.057Z,12.40
2017-09-04T10:34:44.739Z,9.50
2017-09-04T10:37:13.281Z,10.60
2017-09-04T10:39:40.996Z,7.00
2017-09-04T10:42:08.666Z,8.07
2017-09-04T10:44:36.308Z,7.60
2017-09-04T10:47:03.974Z,4.37
2017-09-04T10:49:31.727Z,5.40
2017-09-04T10:51:59.461Z,7.60
2017-09-04T10:54:27.161Z,5.40
2017-09-04T10:56:54.846Z,15.30
2017-09-04T10:59:22.426Z,7.67
2017-09-04T11:01:49.970Z,6.90
2017-09-04T11:04:17.526Z,5.87
2017-09-04T11:06:45.104Z,11.60
2017-09-04T11:09:12.638Z,4.40
2017-09-04T11:11:40.181Z,5.20
2017-09-04T11:14:07.737Z,6.23
2017-09-04T11:16:35.264Z,5.67
2017-09-04T11:19:02.791Z,4.57
2017-09-04T11:21:31.112Z,8.30
2017-09-04T11:23:58.666Z,5.63
2017-09-04T11:26:26.221Z,5.50
2017-09-04T11:28:53.794Z,7.40
2017-09-04T11:31:22.160Z,10.23
2017-09-04T11:33:49.699Z,5.80
2017-09-04T11:36:17.262Z,7.93
2017-09-04T11:38:44.801Z,3.77
2017-09-04T11:41:12.348Z,6.80
2017-09-04T11:43:39.919Z,5.30
2017-09-04T11:46:07.464Z,5.07
2017-09-04T11:48:35.005Z,7.37
2017-09-04T11:51:03.331Z,4.83
2017-09-04T11:53:30.871Z,4.90
2017-09-04T11:55:58.405Z,6.03
2017-09-04T11:58:26.772Z,6.90
2017-09-04T12:00:54.294Z,12.03
2017-09-04T12:03:21.833Z,4.33
2017-09-04T12:05:49.424Z,9.50
2017-09-04T12:08:16.977Z,6.83
2017-09-04T12:10:44.518Z,6.20
2017-09-04T12:13:12.093Z,20.13
2017-09-04T12:15:39.618Z,8.67
2017-09-04T12:18:07.163Z,4.77
2017-09-04T12:20:34.726Z,8.13
2017-09-04T12:23:02.275Z,4.77
2017-09-04T12:25:29.824Z,6.30
2017-09-04T12:27:57.398Z,4.20
2017-09-04T12:30:24.946Z,11.00
2017-09-04T12:32:52.542Z,5.43
2017-09-04T12:35:20.100Z,6.93
2017-09-04T12:37:47.658Z,5.70
2017-09-04T12:40:15.208Z,5.43
2017-09-04T12:42:42.770Z,4.43
2017-09-04T12:45:10.328Z,12.33
2017-09-04T12:47:37.853Z,6.93
2017-09-04T12:50:05.433Z,8.23
2017-09-04T12:52:32.973Z,8.50
2017-09-04T12:55:00.504Z,10.53
2017-09-04T12:57:28.086Z,4.67
2017-09-04T12:59:55.641Z,3.40
2017-09-04T13:02:23.192Z,4.47
2017-09-04T13:04:50.762Z,4.20
2017-09-04T13:07:18.317Z,5.47
2017-09-04T13:09:46.618Z,4.60
2017-09-04T13:12:21.945Z,8.43
2017-09-04T13:15:00.059Z,6.03
2017-09-04T13:17:33.538Z,9.70
2017-09-04T13:20:06.875Z,6.50
2017-09-04T13:25:51.680Z,5.67
2017-09-04T13:28:24.896Z,4.80
2017-09-04T13:30:58.069Z,6.70
2017-09-04T13:33:31.322Z,4.63
2017-09-04T13:36:04.648Z,6.03
2017-09-04T13:38:37.812Z,4.17
2017-09-04T13:41:11.161Z,7.20
2017-09-04T13:43:44.348Z,4.03
2017-09-04T13:46:17.510Z,5.30
2017-09-04T13:48:50.645Z,7.30
2017-09-04T13:54:34.485Z,6.23
2017-09-04T13:57:07.660Z,6.23
2017-09-04T13:59:40.779Z,5.37
2017-09-04T14:05:27.317Z,7.20
2017-09-04T14:11:01.380Z,6.03
2017-09-04T14:13:34.544Z,6.63
2017-09-04T14:16:07.601Z,5.47
2017-09-04T14:18:35.124Z,7.50
2017-09-04T14:21:02.654Z,6.57
2017-09-04T14:23:30.234Z,5.03
2017-09-04T14:25:57.785Z,4.40
2017-09-04T14:28:25.335Z,5.27
2017-09-04T14:30:52.889Z,6.03
2017-09-04T14:33:20.414Z,13.60
2017-09-04T14:35:47.944Z,4.97
2017-09-04T14:38:15.514Z,6.30
2017-09-04T14:40:43.045Z,4.97
2017-09-04T14:43:16.464Z,5.37
2017-09-04T14:46:00.705Z,7.57
2017-09-04T14:48:34.030Z,6.80
2017-09-04T14:51:01.576Z,6.33
2017-09-04T14:53:29.105Z,8.93
2017-09-04T14:55:56.684Z,8.17
2017-09-04T14:58:24.210Z,6.20
2017-09-04T15:00:51.766Z,6.83
2017-09-04T15:03:19.318Z,5.57
2017-09-04T15:05:46.883Z,7.17
2017-09-04T15:08:14.442Z,6.63
2017-09-04T15:10:42.029Z,6.93
2017-09-04T15:13:09.579Z,8.17
2017-09-04T15:15:37.119Z,6.80
2017-09-04T15:18:04.695Z,5.37
2017-09-04T15:20:32.235Z,8.90
2017-09-04T15:22:59.779Z,6.83
2017-09-04T15:25:27.357Z,5.83
2017-09-04T15:27:54.884Z,8.60
2017-09-04T15:30:22.429Z,5.57
2017-09-04T15:32:49.985Z,9.27
2017-09-04T15:35:17.513Z,20.73
2017-09-04T15:37:45.046Z,10.03
2017-09-04T15:40:12.605Z,9.10
2017-09-04T15:42:40.144Z,7.13
2017-09-04T15:45:07.686Z,7.60
2017-09-04T15:47:35.245Z,6.63
2017-09-04T15:50:02.788Z,13.27
2017-09-04T15:52:30.341Z,8.40
2017-09-04T15:54:57.921Z,5.73
2017-09-04T15:57:25.441Z,6.77
2017-09-04T15:59:53.000Z,10.27
2017-09-04T16:02:20.561Z,8.50
2017-09-04T16:04:48.112Z,8.23
2017-09-04T16:07:25.588Z,8.10
2017-09-04T16:09:53.122Z,10.70
2017-09-04T16:12:25.515Z,8.30
2017-09-04T16:14:53.845Z,7.57
2017-09-04T16:17:23.142Z,9.90
2017-09-04T16:19:51.703Z,10.43
2017-09-04T16:22:33.958Z,7.83
2017-09-04T16:25:01.521Z,8.10
2017-09-04T16:27:45.745Z,8.43
2017-09-04T16:30:14.120Z,8.63
2017-09-04T16:36:05.065Z,12.33
2017-09-04T16:38:48.301Z,4.20
2017-09-04T16:41:17.658Z,5.37
2017-09-04T16:43:47.102Z,6.80
2017-09-04T16:46:14.642Z,4.30
2017-09-04T16:51:43.868Z,8.17
2017-09-04T16:54:28.246Z,10.27
2017-09-04T16:56:56.419Z,20.20
2017-09-04T16:59:23.940Z,10.50
2017-09-04T17:01:51.516Z,8.77
2017-09-04T17:04:19.045Z,8.90
2017-09-04T17:06:46.610Z,8.37
2017-09-04T17:09:14.953Z,7.90
2017-09-04T17:11:42.952Z,5.30
2017-09-04T17:14:10.530Z,6.40
2017-09-04T17:16:40.832Z,7.90
2017-09-04T17:19:19.116Z,4.40
2017-09-04T17:25:00.917Z,9.50
2017-09-04T17:27:28.479Z,9.47
2017-09-04T17:29:56.009Z,8.60
2017-09-04T17:32:23.562Z,6.90
2017-09-04T17:34:51.146Z,7.50
2017-09-04T17:37:18.678Z,10.73
2017-09-04T17:39:46.212Z,5.93
2017-09-04T17:42:13.785Z,20.93
2017-09-04T17:44:41.341Z,14.93
2017-09-04T17:47:09.658Z,12.73
2017-09-04T17:49:37.252Z,16.73
2017-09-04T17:52:04.805Z,11.33
2017-09-04T17:54:32.354Z,18.13
2017-09-04T17:56:59.933Z,8.33
2017-09-04T17:59:27.488Z,9.33
2017-09-04T18:01:55.051Z,12.63
2017-09-04T18:04:22.627Z,13.60
2017-09-04T18:06:50.166Z,8.30
2017-09-04T18:09:17.697Z,13.23
2017-09-04T18:11:45.263Z,8.33
2017-09-04T18:14:12.788Z,10.73
2017-09-04T18:16:40.327Z,8.80
2017-09-04T18:19:07.902Z,7.73
2017-09-04T18:21:35.464Z,12.80
2017-09-04T18:24:03.017Z,10.20
2017-09-04T18:26:30.601Z,7.80
2017-09-04T18:28:58.148Z,13.67
2017-09-04T18:31:25.696Z,8.23
2017-09-04T18:33:53.264Z,9.70
2017-09-04T18:36:21.568Z,5.67
2017-09-04T18:38:49.106Z,7.43
2017-09-04T18:41:16.669Z,6.03
2017-09-04T18:43:44.215Z,8.43
2017-09-04T18:46:11.770Z,9.13
2017-09-04T18:48:39.350Z,5.73
2017-09-04T18:51:06.916Z,5.43
2017-09-04T18:53:34.458Z,7.30
2017-09-04T18:56:02.051Z,11.43
2017-09-04T18:58:29.604Z,7.17
2017-09-04T19:00:57.137Z,9.37
2017-09-04T19:03:24.699Z,7.83
2017-09-04T19:05:52.223Z,4.00
2017-09-04T19:08:19.778Z,8.90
2017-09-04T19:10:47.359Z,8.53
2017-09-04T19:13:14.898Z,9.70
2017-09-04T19:15:42.464Z,7.33
2017-09-04T19:18:10.041Z,8.20
2017-09-04T19:20:37.576Z,4.87
2017-09-04T19:23:05.138Z,6.90
2017-09-04T19:25:32.739Z,8.57
2017-09-04T19:28:00.298Z,7.00
2017-09-04T19:30:27.860Z,7.93
2017-09-04T19:32:55.435Z,6.00
2017-09-04T19:35:23.009Z,4.90
2017-09-04T19:37:50.569Z,9.10
2017-09-04T19:40:18.125Z,5.00
2017-09-04T19:42:45.711Z,7.17
2017-09-04T19:45:13.237Z,5.57
2017-09-04T19:47:40.798Z,8.20
2017-09-04T19:50:08.352Z,12.50
2017-09-04T19:52:35.925Z,17.80
2017-09-04T19:55:03.516Z,7.03
2017-09-04T19:57:31.045Z,7.43
2017-09-04T19:59:58.601Z,6.17
2017-09-04T20:02:26.175Z,8.03
2017-09-04T20:04:53.728Z,5.50
2017-09-04T20:07:21.266Z,9.07
2017-09-04T20:09:48.844Z,9.07
2017-09-04T20:12:16.395Z,6.30
2017-09-04T20:14:43.948Z,10.73
2017-09-04T20:17:11.536Z,7.27
2017-09-04T20:19:39.067Z,6.00
2017-09-04T20:22:06.613Z,11.50
2017-09-04T20:24:34.178Z,8.90
2017-09-04T20:27:01.721Z,8.90
2017-09-04T20:29:29.245Z,8.57
2017-09-04T20:31:56.821Z,5.80
2017-09-04T20:34:24.365Z,8.83
2017-09-04T20:36:51.888Z,11.13
2017-09-04T20:39:19.457Z,8.50
2017-09-04T20:41:47.010Z,10.50
2017-09-04T20:44:14.561Z,11.43
2017-09-04T20:46:42.125Z,8.03
2017-09-04T20:49:09.673Z,7.67
2017-09-04T20:51:37.249Z,10.77
2017-09-04T20:54:04.805Z,8.50
2017-09-04T20:56:32.342Z,4.87
2017-09-04T20:58:59.886Z,6.43
2017-09-04T21:01:28.228Z,9.53
2017-09-04T21:03:55.769Z,6.70
2017-09-04T21:06:23.326Z,5.03
2017-09-04T21:08:50.926Z,6.77
2017-09-04T21:11:18.489Z,5.37
2017-09-04T21:13:46.026Z,6.73
2017-09-04T21:16:13.603Z,4.27
2017-09-04T21:18:41.136Z,7.80
2017-09-04T21:21:08.683Z,4.63
2017-09-04T21:23:36.245Z,14.50
2017-09-04T21:26:03.794Z,4.70
2017-09-04T21:28:31.325Z,5.40
2017-09-04T21:30:58.890Z,8.50
2017-09-04T21:33:26.422Z,5.13
2017-09-04T21:35:53.953Z,5.10
2017-09-04T21:38:21.534Z,5.90
2017-09-04T21:40:49.069Z,5.50
2017-09-04T21:43:16.615Z,10.40
2017-09-04T21:45:44.192Z,7.87
2017-09-04T21:48:11.744Z,6.50
2017-09-04T21:50:39.273Z,7.23
2017-09-04T21:53:06.860Z,7.30
2017-09-04T21:55:34.407Z,8.63
2017-09-04T21:58:01.950Z,6.30
2017-09-04T22:00:29.528Z,5.47
2017-09-04T22:02:57.069Z,11.10
2017-09-04T22:05:24.598Z,7.13
2017-09-04T22:07:52.156Z,7.53
2017-09-04T22:10:19.695Z,6.80
2017-09-04T22:12:48.015Z,5.80
2017-09-04T22:15:15.577Z,7.80
2017-09-04T22:17:43.128Z,9.23
2017-09-04T22:20:10.679Z,6.60
2017-09-04T22:22:38.233Z,4.67
2017-09-04T22:25:05.783Z,4.93
2017-09-04T22:27:33.345Z,4.57
2017-09-04T22:30:00.913Z,7.60
2017-09-04T22:32:28.441Z,7.57
2017-09-04T22:34:55.978Z,6.03
2017-09-04T22:37:23.544Z,4.90
2017-09-04T22:39:51.091Z,4.50
2017-09-04T22:42:18.613Z,6.27
2017-09-04T22:44:46.175Z,4.93
2017-09-04T22:47:13.727Z,6.03
2017-09-04T22:49:41.276Z,6.27
2017-09-04T22:52:08.863Z,6.67
2017-09-04T22:54:36.436Z,5.67
2017-09-04T22:57:03.964Z,5.07
2017-09-04T22:59:31.525Z,5.23
2017-09-04T23:01:59.076Z,11.63
2017-09-04T23:04:26.616Z,5.50
2017-09-04T23:06:54.173Z,6.13
2017-09-04T23:09:21.725Z,6.57
2017-09-04T23:11:49.276Z,5.47
2017-09-04T23:14:16.833Z,6.00
2017-09-04T23:16:44.360Z,8.50
2017-09-04T23:19:11.893Z,5.67
2017-09-04T23:21:39.453Z,5.77
2017-09-04T23:24:06.994Z,7.60
2017-09-04T23:26:34.524Z,10.33
2017-09-04T23:29:02.085Z,5.67
2017-09-04T23:31:30.396Z,6.17
2017-09-04T23:33:57.948Z,7.07
2017-09-04T23:36:25.512Z,6.63
2017-09-04T23:38:53.066Z,8.53
2017-09-04T23:41:20.602Z,8.33
2017-09-04T23:43:48.183Z,9.20
2017-09-04T23:46:15.727Z,6.93
2017-09-04T23:48:43.256Z,6.70
2017-09-04T23:51:10.816Z,7.37
2017-09-04T23:53:38.348Z,7.90
2017-09-04T23:56:05.889Z,5.90
2017-09-04T23:58:33.466Z,12.57
